createdAt,value
2022-08-25T00:01:16.882Z,3.08
2022-08-25T00:03:45.332Z,2.90
2022-08-25T00:06:12.473Z,2.88
2022-08-25T00:08:40.097Z,2.90
2022-08-25T00:11:09.380Z,2.92
2022-08-25T00:13:35.945Z,2.55
2022-08-25T00:16:02.711Z,2.83
2022-08-25T00:18:29.332Z,3.03
2022-08-25T00:20:56.596Z,2.90
2022-08-25T00:23:23.272Z,3.30
2022-08-25T00:25:50.847Z,3.03
2022-08-25T00:28:18.063Z,2.83
2022-08-25T00:30:45.092Z,2.70
2022-08-25T00:33:11.722Z,2.80
2022-08-25T00:35:38.649Z,2.70
2022-08-25T00:38:05.229Z,3.00
2022-08-25T00:40:31.989Z,3.00
2022-08-25T00:42:58.900Z,2.58
2022-08-25T00:45:25.434Z,3.13
2022-08-25T00:47:52.047Z,3.00
2022-08-25T00:50:20.921Z,2.75
2022-08-25T00:52:50.952Z,2.70
2022-08-25T00:55:22.165Z,3.10
2022-08-25T00:57:54.417Z,2.38
2022-08-25T01:00:26.084Z,2.97
2022-08-25T01:02:53.405Z,2.90
2022-08-25T01:05:20.740Z,2.92
2022-08-25T01:07:47.317Z,2.63
2022-08-25T01:10:14.060Z,2.90
2022-08-25T01:12:40.760Z,2.65
2022-08-25T01:15:09.167Z,2.80
2022-08-25T01:17:47.147Z,2.92
2022-08-25T01:20:14.471Z,3.03
2022-08-25T01:22:41.575Z,2.88
2022-08-25T01:25:28.323Z,2.78
2022-08-25T01:27:55.577Z,2.83
2022-08-25T01:30:23.333Z,2.63
2022-08-25T01:32:49.883Z,2.78
2022-08-25T01:35:16.997Z,2.92
2022-08-25T01:37:43.456Z,2.80
2022-08-25T01:40:10.442Z,2.67
2022-08-25T01:42:55.950Z,3.05
2022-08-25T01:45:22.498Z,2.72
2022-08-25T01:47:49.080Z,3.08
2022-08-25T01:50:15.586Z,2.38
2022-08-25T01:52:54.819Z,3.17
2022-08-25T01:55:22.039Z,2.75
2022-08-25T01:57:48.672Z,2.60
2022-08-25T02:00:16.883Z,2.83
2022-08-25T02:02:43.975Z,2.50
2022-08-25T02:05:14.089Z,2.58
2022-08-25T02:07:42.424Z,2.90
2022-08-25T02:10:12.113Z,3.00
2022-08-25T02:12:38.741Z,2.80
2022-08-25T02:15:07.025Z,3.03
2022-08-25T02:17:35.509Z,3.10
2022-08-25T02:20:04.203Z,2.85
2022-08-25T02:22:31.003Z,2.97
2022-08-25T02:24:57.460Z,2.75
2022-08-25T02:27:24.390Z,2.80
2022-08-25T02:29:50.843Z,2.60
2022-08-25T02:32:17.308Z,2.58
2022-08-25T02:34:44.204Z,2.97
2022-08-25T02:37:10.672Z,2.78
2022-08-25T02:39:37.118Z,2.78
2022-08-25T02:42:03.919Z,2.92
2022-08-25T02:44:31.745Z,3.05
2022-08-25T02:46:58.511Z,2.80
2022-08-25T02:49:25.025Z,2.90
2022-08-25T02:51:51.868Z,2.42
2022-08-25T02:54:18.335Z,2.90
2022-08-25T02:56:44.813Z,2.80
2022-08-25T02:59:11.335Z,2.78
2022-08-25T03:01:37.869Z,2.70
2022-08-25T03:04:04.542Z,2.33
2022-08-25T03:06:31.090Z,2.80
2022-08-25T03:08:57.611Z,2.40
2022-08-25T03:11:25.553Z,3.08
2022-08-25T03:13:52.539Z,2.90
2022-08-25T03:16:20.319Z,2.65
2022-08-25T03:18:48.390Z,3.13
2022-08-25T03:21:16.274Z,2.90
2022-08-25T03:23:43.443Z,3.10
2022-08-25T03:26:28.405Z,3.03
2022-08-25T03:28:55.501Z,3.15
2022-08-25T03:31:27.808Z,3.00
2022-08-25T03:36:21.350Z,2.80
2022-08-25T03:38:47.894Z,3.10
2022-08-25T03:41:17.575Z,3.22
2022-08-25T03:43:44.419Z,3.05
2022-08-25T03:46:20.642Z,3.40
2022-08-25T03:48:47.756Z,3.15
2022-08-25T03:51:23.560Z,2.90
2022-08-25T03:53:50.762Z,3.40
2022-08-25T03:56:17.869Z,2.88
2022-08-25T03:58:44.817Z,2.78
2022-08-25T04:01:11.598Z,2.90
2022-08-25T04:03:38.145Z,2.85
2022-08-25T04:06:06.680Z,3.40
2022-08-25T04:08:33.476Z,3.40
2022-08-25T04:11:04.828Z,3.47
2022-08-25T04:13:31.306Z,3.47
2022-08-25T04:15:57.883Z,3.75
2022-08-25T04:18:24.323Z,3.88
2022-08-25T04:20:50.844Z,4.25
2022-08-25T04:23:17.370Z,3.63
2022-08-25T04:25:43.892Z,4.10
2022-08-25T04:28:12.723Z,4.15
2022-08-25T04:30:43.755Z,4.28
2022-08-25T04:33:10.224Z,4.55
2022-08-25T04:35:36.738Z,4.38
2022-08-25T04:38:04.890Z,4.18
2022-08-25T04:40:31.909Z,4.55
2022-08-25T04:42:58.871Z,4.20
2022-08-25T04:45:25.498Z,4.72
2022-08-25T04:47:54.994Z,4.68
2022-08-25T04:50:21.654Z,4.60
2022-08-25T04:52:49.366Z,4.45
2022-08-25T04:55:15.923Z,4.55
2022-08-25T04:57:42.395Z,4.93
2022-08-25T05:00:09.578Z,4.45
2022-08-25T05:02:36.179Z,4.30
2022-08-25T05:05:04.128Z,4.97
2022-08-25T05:07:30.579Z,4.90
2022-08-25T05:09:57.051Z,4.80
2022-08-25T05:12:23.523Z,5.03
2022-08-25T05:14:53.561Z,4.80
2022-08-25T05:17:20.154Z,4.40
2022-08-25T05:19:49.062Z,4.53
2022-08-25T05:22:15.528Z,4.70
2022-08-25T05:24:42.097Z,4.82
2022-08-25T05:27:08.526Z,4.68
2022-08-25T05:29:34.991Z,4.93
2022-08-25T05:32:01.573Z,4.63
2022-08-25T05:34:28.116Z,4.40
2022-08-25T05:36:54.646Z,4.93
2022-08-25T05:39:21.208Z,5.15
2022-08-25T05:41:47.683Z,4.70
2022-08-25T05:44:17.906Z,4.50
2022-08-25T05:46:47.238Z,5.15
2022-08-25T05:49:13.702Z,5.05
2022-08-25T05:51:40.224Z,4.32
2022-08-25T05:54:06.739Z,4.82
2022-08-25T05:56:33.256Z,4.63
2022-08-25T05:58:59.879Z,4.82
2022-08-25T06:01:48.104Z,4.68
2022-08-25T06:04:22.499Z,5.40
2022-08-25T06:06:49.897Z,4.43
2022-08-25T06:09:16.316Z,4.88
2022-08-25T06:11:43.025Z,5.03
2022-08-25T06:14:10.374Z,4.30
2022-08-25T06:16:39.042Z,4.53
2022-08-25T06:19:06.937Z,4.65
2022-08-25T06:21:33.387Z,4.38
2022-08-25T06:24:01.281Z,4.75
2022-08-25T06:26:27.859Z,4.63
2022-08-25T06:28:54.618Z,4.82
2022-08-25T06:31:22.470Z,5.28
2022-08-25T06:33:49.346Z,4.30
2022-08-25T06:36:16.009Z,5.07
2022-08-25T06:38:42.710Z,4.85
2022-08-25T06:41:12.717Z,4.78
2022-08-25T06:43:46.632Z,5.82
2022-08-25T06:46:18.364Z,5.75
2022-08-25T06:48:45.082Z,6.38
2022-08-25T06:51:14.460Z,7.18
2022-08-25T06:53:41.758Z,7.72
2022-08-25T06:56:08.732Z,8.10
2022-08-25T06:58:35.773Z,8.55
2022-08-25T07:01:27.160Z,6.75
2022-08-25T07:03:57.852Z,7.32
2022-08-25T07:06:27.582Z,7.53
2022-08-25T07:08:55.353Z,7.90
2022-08-25T07:11:22.898Z,8.30
2022-08-25T07:13:50.409Z,7.63
2022-08-25T07:16:20.609Z,6.65
2022-08-25T07:18:48.174Z,6.85
2022-08-25T07:21:15.541Z,5.85
2022-08-25T07:23:42.417Z,5.78
2022-08-25T07:26:36.328Z,6.20
2022-08-25T07:28:58.639Z,5.78
2022-08-25T07:31:29.476Z,6.55
2022-08-25T07:34:16.336Z,6.07
2022-08-25T07:36:43.336Z,6.38
2022-08-25T07:39:09.909Z,5.97
2022-08-25T07:41:38.052Z,6.30
2022-08-25T07:44:05.782Z,6.65
2022-08-25T07:46:32.675Z,6.10
2022-08-25T07:49:00.300Z,6.15
2022-08-25T07:53:59.723Z,5.72
2022-08-25T07:56:32.014Z,5.83
2022-08-25T07:59:00.499Z,5.53
2022-08-25T08:01:28.084Z,5.43
2022-08-25T08:03:58.357Z,5.90
2022-08-25T08:06:27.963Z,5.65
2022-08-25T08:08:58.782Z,5.22
2022-08-25T08:11:29.138Z,5.53
2022-08-25T08:13:57.267Z,5.40
2022-08-25T08:16:26.850Z,5.40
2022-08-25T08:18:53.898Z,5.18
2022-08-25T08:21:24.389Z,4.70
2022-08-25T08:23:56.682Z,4.50
2022-08-25T08:26:36.308Z,4.65
2022-08-25T08:29:08.863Z,4.85
2022-08-25T08:31:36.562Z,4.20
2022-08-25T08:34:03.757Z,4.82
2022-08-25T08:36:30.190Z,4.75
2022-08-25T08:38:56.726Z,4.78
2022-08-25T08:42:11.463Z,4.47
2022-08-25T08:44:44.613Z,4.35
2022-08-25T08:50:10.728Z,4.25
2022-08-25T08:52:49.733Z,4.30
2022-08-25T08:55:31.292Z,4.63
2022-08-25T08:58:00.641Z,4.70
2022-08-25T09:00:28.739Z,4.07
2022-08-25T09:03:04.996Z,4.35
2022-08-25T09:05:46.701Z,4.20
2022-08-25T09:08:20.397Z,4.85
2022-08-25T09:11:03.217Z,4.70
2022-08-25T09:16:57.197Z,4.80
2022-08-25T09:19:32.618Z,4.53
2022-08-25T09:22:35.242Z,4.50
2022-08-25T09:25:39.755Z,4.90
2022-08-25T09:28:25.949Z,4.40
2022-08-25T09:31:16.251Z,4.47
2022-08-25T09:33:43.957Z,4.90
2022-08-25T09:36:10.861Z,4.68
2022-08-25T09:38:38.371Z,4.57
2022-08-25T09:41:05.331Z,5.00
2022-08-25T09:43:38.227Z,4.63
2022-08-25T09:46:27.022Z,4.57
2022-08-25T09:48:59.404Z,4.50
2022-08-25T09:51:38.003Z,4.53
2022-08-25T09:54:18.130Z,4.43
2022-08-25T09:57:00.586Z,4.28
2022-08-25T09:59:34.632Z,4.30
2022-08-25T10:02:05.614Z,4.30
2022-08-25T10:04:36.890Z,4.60
2022-08-25T10:07:21.107Z,4.47
2022-08-25T10:10:02.306Z,4.30
2022-08-25T10:12:42.599Z,4.45
2022-08-25T10:15:32.530Z,4.22
2022-08-25T10:18:18.939Z,3.97
2022-08-25T10:21:01.533Z,4.10
2022-08-25T10:23:30.690Z,4.30
2022-08-25T10:26:04.530Z,4.20
2022-08-25T10:28:46.978Z,4.47
2022-08-25T10:31:37.002Z,4.10
2022-08-25T10:34:21.944Z,5.22
2022-08-25T10:37:05.374Z,4.80
2022-08-25T10:39:41.839Z,5.05
2022-08-25T10:42:16.868Z,4.43
2022-08-25T10:45:43.185Z,4.20
2022-08-25T10:48:28.500Z,4.97
2022-08-25T10:51:02.737Z,4.90
2022-08-25T10:53:51.466Z,4.75
2022-08-25T10:56:24.640Z,4.97
2022-08-25T10:58:59.926Z,4.47
2022-08-25T11:01:47.741Z,4.90
2022-08-25T11:04:28.385Z,4.68
2022-08-25T11:07:00.639Z,5.18
2022-08-25T11:12:05.017Z,4.50
2022-08-25T11:14:37.078Z,4.40
2022-08-25T11:17:26.773Z,4.57
2022-08-25T11:19:59.100Z,4.78
2022-08-25T11:22:45.736Z,4.45
2022-08-25T11:25:26.500Z,4.30
2022-08-25T11:28:08.579Z,4.50
2022-08-25T11:30:35.946Z,4.60
2022-08-25T11:33:03.634Z,4.28
2022-08-25T11:35:43.378Z,4.22
2022-08-25T11:38:28.804Z,4.80
2022-08-25T11:41:30.246Z,4.28
2022-08-25T11:44:20.542Z,3.78
2022-08-25T11:47:00.605Z,3.40
2022-08-25T11:50:07.122Z,3.75
2022-08-25T11:52:34.956Z,3.97
2022-08-25T11:55:10.884Z,4.13
2022-08-25T11:57:38.585Z,3.90
2022-08-25T12:00:09.967Z,4.35
2022-08-25T12:02:47.481Z,4.57
2022-08-25T12:05:20.135Z,4.20
2022-08-25T12:08:12.865Z,4.40
2022-08-25T12:11:07.261Z,4.40
2022-08-25T12:13:47.631Z,4.10
2022-08-25T12:16:40.690Z,4.07
2022-08-25T12:19:35.206Z,4.03
2022-08-25T12:22:03.200Z,4.18
2022-08-25T12:24:47.533Z,3.70
2022-08-25T12:27:25.128Z,3.80
2022-08-25T12:30:26.215Z,3.72
2022-08-25T12:33:05.912Z,3.72
2022-08-25T12:35:40.358Z,3.42
2022-08-25T12:38:16.563Z,3.33
2022-08-25T12:40:42.979Z,3.80
2022-08-25T12:43:26.691Z,3.13
2022-08-25T12:46:14.932Z,3.42
2022-08-25T12:48:54.919Z,3.67
2022-08-25T12:51:23.917Z,3.50
2022-08-25T12:54:01.313Z,3.17
2022-08-25T12:56:39.090Z,3.90
2022-08-25T12:59:14.031Z,9.32
2022-08-25T13:01:59.031Z,11.13
2022-08-25T13:04:44.840Z,14.85
2022-08-25T13:07:23.189Z,16.75
2022-08-25T13:10:14.879Z,24.15
2022-08-25T13:12:59.614Z,29.85
2022-08-25T13:15:57.875Z,30.15
2022-08-25T13:18:31.370Z,33.42
2022-08-25T13:21:07.003Z,38.35
2022-08-25T13:23:37.947Z,43.20
2022-08-25T13:26:05.304Z,50.88
2022-08-25T13:28:40.845Z,45.33
2022-08-25T13:31:28.096Z,48.97
2022-08-25T13:33:58.681Z,53.03
2022-08-25T13:36:52.074Z,60.20
2022-08-25T13:39:38.970Z,56.08
2022-08-25T13:42:17.577Z,53.53
2022-08-25T13:44:52.310Z,50.85
2022-08-25T13:47:43.483Z,49.72
2022-08-25T13:50:17.199Z,46.15
2022-08-25T13:52:51.048Z,41.88
2022-08-25T13:55:38.416Z,40.08
2022-08-25T13:58:32.469Z,36.17
2022-08-25T14:01:47.610Z,30.83
2022-08-25T14:04:20.370Z,29.27
2022-08-25T14:06:48.106Z,27.02
2022-08-25T14:09:18.342Z,24.75
2022-08-25T14:11:58.538Z,23.52
2022-08-25T14:14:24.979Z,21.95
2022-08-25T14:17:12.037Z,20.77
2022-08-25T14:19:48.992Z,18.00
2022-08-25T14:22:15.966Z,17.48
2022-08-25T14:24:45.429Z,18.38
2022-08-25T14:27:12.379Z,17.08
2022-08-25T14:29:41.232Z,16.10
2022-08-25T14:32:09.941Z,16.33
2022-08-25T14:34:39.520Z,15.05
2022-08-25T14:37:15.787Z,15.30
2022-08-25T14:39:44.152Z,14.18
2022-08-25T14:42:12.284Z,14.15
2022-08-25T14:44:39.465Z,13.73
2022-08-25T14:47:07.760Z,14.10
2022-08-25T14:49:40.724Z,13.75
2022-08-25T14:52:15.796Z,12.27
2022-08-25T14:54:43.702Z,12.55
2022-08-25T14:57:10.292Z,12.32
2022-08-25T14:59:36.823Z,12.20
2022-08-25T15:02:12.992Z,11.65
2022-08-25T15:04:39.712Z,11.55
2022-08-25T15:07:34.102Z,11.05
2022-08-25T15:10:00.614Z,11.40
2022-08-25T15:12:46.151Z,10.80
2022-08-25T15:15:14.365Z,9.98
2022-08-25T15:17:41.993Z,9.82
2022-08-25T15:20:11.752Z,10.07
2022-08-25T15:22:38.578Z,10.43
2022-08-25T15:25:05.654Z,9.30
2022-08-25T15:27:34.133Z,9.10
2022-08-25T15:30:00.651Z,8.95
2022-08-25T15:32:27.878Z,9.30
2022-08-25T15:34:54.507Z,9.07
2022-08-25T15:37:20.983Z,9.15
2022-08-25T15:39:48.836Z,8.55
2022-08-25T15:42:16.650Z,8.75
2022-08-25T15:44:53.542Z,8.43
2022-08-25T15:47:21.110Z,8.15
2022-08-25T15:49:47.647Z,8.18
2022-08-25T15:52:14.171Z,7.80
2022-08-25T15:54:40.895Z,8.25
2022-08-25T15:57:10.521Z,7.50
2022-08-25T15:59:41.000Z,7.47
2022-08-25T16:02:14.883Z,7.60
2022-08-25T16:04:42.087Z,7.40
2022-08-25T16:07:09.639Z,7.38
2022-08-25T16:09:41.307Z,7.32
2022-08-25T16:12:08.673Z,7.28
2022-08-25T16:14:35.608Z,6.57
2022-08-25T16:17:02.105Z,7.30
2022-08-25T16:19:29.362Z,7.20
2022-08-25T16:21:57.255Z,6.95
2022-08-25T16:24:24.534Z,7.30
2022-08-25T16:26:51.790Z,6.50
2022-08-25T16:29:20.007Z,6.28
2022-08-25T16:31:53.341Z,6.60
2022-08-25T16:34:22.315Z,6.55
2022-08-25T16:36:52.985Z,6.60
2022-08-25T16:39:21.275Z,6.28
2022-08-25T16:41:48.332Z,6.55
2022-08-25T16:44:15.297Z,5.78
2022-08-25T16:46:44.363Z,5.85
2022-08-25T16:49:13.670Z,5.68
2022-08-25T16:51:42.670Z,5.32
2022-08-25T16:54:30.595Z,5.68
2022-08-25T16:57:00.752Z,5.35
2022-08-25T16:59:27.286Z,5.70
2022-08-25T17:01:54.562Z,6.05
2022-08-25T17:04:21.747Z,5.70
2022-08-25T17:06:58.456Z,5.53
2022-08-25T17:09:24.909Z,5.32
2022-08-25T17:11:54.578Z,5.40
2022-08-25T17:14:21.742Z,5.38
2022-08-25T17:16:50.672Z,5.25
2022-08-25T17:19:17.435Z,4.93
2022-08-25T17:21:46.365Z,5.55
2022-08-25T17:24:13.828Z,4.97
2022-08-25T17:26:42.249Z,4.82
2022-08-25T17:29:09.276Z,4.88
2022-08-25T17:31:39.725Z,5.18
2022-08-25T17:34:10.419Z,4.70
2022-08-25T17:36:37.644Z,4.95
2022-08-25T17:39:08.682Z,5.15
2022-08-25T17:41:37.576Z,4.53
2022-08-25T17:44:04.948Z,5.22
2022-08-25T17:46:32.188Z,4.53
2022-08-25T17:48:59.023Z,4.72
2022-08-25T17:51:25.610Z,4.75
2022-08-25T17:53:53.065Z,4.70
2022-08-25T17:56:22.181Z,4.50
2022-08-25T17:58:50.737Z,4.60
2022-08-25T18:01:29.072Z,4.55
2022-08-25T18:03:56.593Z,5.00
2022-08-25T18:06:24.294Z,4.00
2022-08-25T18:08:56.313Z,4.30
2022-08-25T18:11:25.277Z,4.50
2022-08-25T18:13:53.782Z,4.50
2022-08-25T18:16:21.591Z,4.47
2022-08-25T18:18:48.480Z,4.47
2022-08-25T18:21:17.119Z,4.28
2022-08-25T18:23:44.752Z,4.07
2022-08-25T18:26:12.841Z,4.15
2022-08-25T18:28:39.666Z,4.13
2022-08-25T18:31:06.323Z,4.05
2022-08-25T18:33:34.640Z,3.95
2022-08-25T18:36:02.307Z,4.38
2022-08-25T18:38:47.729Z,4.20
2022-08-25T18:41:14.446Z,4.22
2022-08-25T18:43:40.968Z,3.65
2022-08-25T18:46:08.248Z,4.00
2022-08-25T18:48:37.121Z,3.90
2022-08-25T18:51:04.577Z,3.88
2022-08-25T18:53:49.604Z,4.00
2022-08-25T18:56:17.247Z,3.85
2022-08-25T18:58:43.707Z,3.80
2022-08-25T19:01:16.369Z,4.03
2022-08-25T19:03:44.404Z,3.78
2022-08-25T19:06:11.147Z,3.80
2022-08-25T19:08:39.488Z,3.53
2022-08-25T19:11:09.915Z,3.63
2022-08-25T19:13:38.062Z,4.05
2022-08-25T19:16:34.568Z,3.60
2022-08-25T19:19:02.746Z,3.17
2022-08-25T19:21:30.460Z,3.88
2022-08-25T19:23:57.122Z,3.35
2022-08-25T19:26:23.687Z,3.78
2022-08-25T19:28:53.288Z,3.40
2022-08-25T19:31:21.563Z,3.40
2022-08-25T19:33:50.771Z,3.72
2022-08-25T19:36:21.378Z,3.47
2022-08-25T19:38:51.781Z,3.63
2022-08-25T19:41:19.427Z,3.50
2022-08-25T19:43:55.677Z,3.50
2022-08-25T19:46:35.636Z,3.60
2022-08-25T19:49:10.979Z,3.45
2022-08-25T19:51:39.752Z,3.40
2022-08-25T19:54:09.226Z,3.13
2022-08-25T19:56:43.900Z,3.30
2022-08-25T19:59:34.240Z,3.53
2022-08-25T20:02:09.491Z,2.97
2022-08-25T20:04:37.553Z,3.40
2022-08-25T20:07:04.239Z,3.38
2022-08-25T20:09:39.075Z,3.10
2022-08-25T20:12:09.575Z,3.30
2022-08-25T20:14:36.523Z,3.45
2022-08-25T20:17:04.057Z,3.22
2022-08-25T20:19:50.196Z,3.10
2022-08-25T20:22:17.395Z,3.38
2022-08-25T20:24:56.067Z,3.05
2022-08-25T20:27:30.822Z,3.20
2022-08-25T20:29:57.817Z,3.25
2022-08-25T20:32:24.534Z,3.05
2022-08-25T20:34:53.820Z,2.95
2022-08-25T20:37:22.389Z,3.17
2022-08-25T20:39:48.996Z,2.90
2022-08-25T20:42:15.477Z,3.10
2022-08-25T20:44:42.563Z,2.80
2022-08-25T20:47:10.494Z,3.40
2022-08-25T20:49:39.204Z,3.30
2022-08-25T20:52:06.648Z,2.85
2022-08-25T20:54:33.598Z,2.85
2022-08-25T20:57:00.183Z,3.03
2022-08-25T20:59:29.340Z,3.00
2022-08-25T21:01:56.335Z,3.22
2022-08-25T21:04:24.767Z,2.80
2022-08-25T21:06:51.423Z,2.90
2022-08-25T21:09:21.296Z,3.40
2022-08-25T21:11:49.033Z,2.72
2022-08-25T21:14:16.444Z,2.60
2022-08-25T21:16:46.985Z,3.25
2022-08-25T21:19:16.044Z,3.05
2022-08-25T21:21:43.554Z,2.75
2022-08-25T21:24:10.978Z,2.88
2022-08-25T21:26:48.966Z,2.90
2022-08-25T21:29:17.830Z,2.95
2022-08-25T21:31:45.296Z,2.75
2022-08-25T21:34:12.675Z,2.88
2022-08-25T21:36:40.462Z,2.85
2022-08-25T21:39:08.258Z,2.92
2022-08-25T21:41:36.988Z,3.00
2022-08-25T21:44:03.824Z,2.85
2022-08-25T21:46:33.551Z,2.92
2022-08-25T21:49:06.169Z,2.90
2022-08-25T21:51:40.704Z,2.90
2022-08-25T21:54:10.524Z,2.88
2022-08-25T21:56:48.627Z,2.75
2022-08-25T21:59:17.448Z,2.65
2022-08-25T22:01:45.414Z,2.83
2022-08-25T22:04:14.135Z,2.72
2022-08-25T22:06:41.998Z,2.80
2022-08-25T22:09:12.626Z,3.10
2022-08-25T22:11:42.223Z,3.10
2022-08-25T22:14:10.099Z,2.70
2022-08-25T22:16:37.543Z,3.00
2022-08-25T22:19:05.839Z,2.70
2022-08-25T22:21:32.982Z,3.00
2022-08-25T22:24:00.522Z,3.00
2022-08-25T22:26:29.213Z,3.00
2022-08-25T22:28:57.410Z,2.63
2022-08-25T22:31:25.212Z,2.50
2022-08-25T22:33:52.216Z,2.72
2022-08-25T22:36:24.463Z,2.50
2022-08-25T22:38:53.446Z,2.97
2022-08-25T22:41:22.789Z,2.65
2022-08-25T22:43:51.199Z,2.63
2022-08-25T22:46:20.210Z,2.63
2022-08-25T22:48:47.080Z,2.40
2022-08-25T22:51:24.314Z,2.75
2022-08-25T22:53:51.207Z,2.50
2022-08-25T22:56:20.865Z,2.47
2022-08-25T22:58:51.690Z,2.63
2022-08-25T23:01:20.073Z,2.63
2022-08-25T23:03:47.512Z,2.80
2022-08-25T23:06:24.944Z,2.47
2022-08-25T23:08:53.911Z,2.75
2022-08-25T23:11:21.931Z,2.60
2022-08-25T23:13:49.293Z,2.65
2022-08-25T23:16:17.415Z,2.58
2022-08-25T23:18:44.997Z,2.83
2022-08-25T23:21:35.089Z,2.65
2022-08-25T23:26:33.026Z,2.53
2022-08-25T23:29:00.308Z,2.40
2022-08-25T23:31:30.043Z,2.97
2022-08-25T23:33:57.781Z,2.70
2022-08-25T23:36:24.756Z,2.45
2022-08-25T23:38:52.424Z,2.70
2022-08-25T23:41:23.116Z,2.30
2022-08-25T23:43:50.322Z,2.50
2022-08-25T23:46:20.320Z,2.50
2022-08-25T23:48:47.595Z,2.65
2022-08-25T23:51:22.626Z,2.60
2022-08-25T23:53:49.133Z,2.40
2022-08-25T23:56:15.592Z,2.45
2022-08-25T23:58:43.880Z,2.13
